Airfield :
LOGIN :

Register | Disclaimer

   EN    FR    IT 

 










Legend :    VFR   Marginal VFR   IFR   Intensive IFR   Very Intensive IFR
Visi :
Ceiling :
>= 8 km
>= 3000ft
5 to 8 km
1000 to 3000 ft
1500m to 5 km
500 to 1000 ft
800 to 1500m
200 to 500 ft
< 800m
< 200 ft
Symbols :   Thunderstorms  Fog  Heavy snow  Heavy precipitations  Wind > 20 kt
SIGMETs :     Misc.  Thunderstorms  Icing  Turbulence  Mountain Waves  Volcanic Ashes






- Airport Elevation : 22 ft
- IATA code : LDY


EGAE - Londonderry Eglington

CURRENT METAR :
  • 240920Z 25015KT 9000 -DZ SCT008 BKN013 18/16 Q1010

EXPIRED METARs :
  • 240850Z 24014KT 9999 SCT007 BKN012 18/16 Q1010
  • 240820Z 24015KT 9999 SCT007 BKN013 17/16 Q1010
  • 240750Z 24015KT 9999 SCT007 BKN012 17/16 Q1010
  • 240720Z 24016KT 9999 SCT007 BKN012 17/16 Q1010

TAF TAF EGAE
Valid from the 24 at 09:00 until the 24 at 18:00 UTC


240802Z 2409/2418 25015KT 9999 SCT007 BKN012
TEMPO 2409/2415 26018G28KT
TEMPO 2409/2411 4000 DZ BKN007
BECMG 2410/2413 BKN025
PROB40
TEMPO 2416/2418 BKN010



MET'MAP, your aeronautical weather chart ! - Copyright ORBIFLY December 2007 - Disclaimer

ORBIFLY MET'MAP TEAM :

Programming & Development : Alexandra Zaïnal
Concept & original design : Baudouin d'Aumeries
Assistance for programming : Marc-Olivier Méhu
Technical & hardware support : Manuel Goepfert

Contact : metmap@orbifly.com




SOURCES & CREDITS :

   NOAA